Time;durP1;ratioP1;P1;durP2;ratioP2;P2;SDS_P1;SDS_P2;PMS_P1;PMS_P2;Temp;Humidity;BMP_temperature;BMP_pressure;BME280_temperature;BME280_humidity;BME280_pressure;Samples;Min_cycle;Max_cycle;Signal;HPM_P1;HPM_P2
2023/02/06 00:01:06;;;;;;;145.18;27.02;;;-3275.70;99.90;;;;;;5032476;28;20077;-71
2023/02/06 00:03:31;;;;;;;245.85;31.35;;;-3275.70;99.90;;;;;;5033673;28;20031;-71
2023/02/06 00:05:59;;;;;;;102.82;26.80;;;-3275.70;99.90;;;;;;5033405;28;20083;-72
2023/02/06 00:08:25;;;;;;;184.80;28.20;;;-3275.60;99.90;;;;;;5028324;28;20030;-71
2023/02/06 00:10:51;;;;;;;203.63;26.92;;;-3275.60;99.90;;;;;;5026061;28;20117;-72
2023/02/06 00:13:17;;;;;;;142.32;26.58;;;-3275.60;99.90;;;;;;5030124;28;20116;-71
2023/02/06 00:15:43;;;;;;;155.25;27.00;;;-3275.60;99.90;;;;;;5029823;28;20041;-72
2023/02/06 00:18:08;;;;;;;149.35;26.45;;;-3275.50;99.90;;;;;;5031491;28;20033;-71
2023/02/06 00:20:35;;;;;;;72.97;23.08;;;-3275.50;99.90;;;;;;5020553;28;20528;-72
2023/02/06 00:23:01;;;;;;;70.93;22.70;;;-3275.50;99.90;;;;;;5030966;28;20053;-71
2023/02/06 00:25:27;;;;;;;66.78;24.05;;;-3275.50;99.90;;;;;;5022336;28;20060;-71
2023/02/06 00:27:52;;;;;;;70.45;23.67;;;-3275.40;99.90;;;;;;5025576;28;20073;-71
2023/02/06 00:30:18;;;;;;;61.28;23.25;;;-3275.40;99.90;;;;;;5021670;28;20048;-71
2023/02/06 00:32:43;;;;;;;60.92;21.15;;;-3275.40;99.90;;;;;;5017341;28;20030;-71
2023/02/06 00:35:08;;;;;;;67.15;21.27;;;-3275.40;99.90;;;;;;5027727;28;20030;-71
2023/02/06 00:37:34;;;;;;;66.65;22.85;;;-3275.50;99.90;;;;;;5028020;28;20038;-71
2023/02/06 00:39:59;;;;;;;59.33;20.05;;;-3275.40;99.90;;;;;;5028493;28;20413;-72
2023/02/06 00:42:25;;;;;;;68.05;20.33;;;-3275.40;99.90;;;;;;5025242;28;20080;-71
2023/02/06 00:44:50;;;;;;;60.20;19.65;;;-3275.40;99.90;;;;;;5023460;28;20398;-71
2023/02/06 00:47:16;;;;;;;60.33;19.17;;;-3275.50;99.90;;;;;;5021863;28;20041;-71
2023/02/06 00:49:41;;;;;;;53.33;19.88;;;-3275.50;99.90;;;;;;5031235;28;20377;-71
2023/02/06 00:52:07;;;;;;;64.85;20.45;;;-3275.50;99.90;;;;;;5028188;28;20057;-72
2023/02/06 00:54:32;;;;;;;57.92;20.02;;;-3275.50;99.90;;;;;;5023250;28;20034;-71
2023/02/06 00:56:58;;;;;;;51.65;19.00;;;-3275.40;99.90;;;;;;5017760;28;20079;-72
2023/02/06 00:59:23;;;;;;;63.72;18.33;;;-3275.40;99.90;;;;;;5025615;28;20033;-72
2023/02/06 01:01:48;;;;;;;64.20;20.15;;;-3275.30;99.90;;;;;;5025545;28;20046;-71
2023/02/06 01:04:14;;;;;;;62.28;18.73;;;-3275.30;99.90;;;;;;5025414;28;20037;-72
2023/02/06 01:06:39;;;;;;;74.90;20.15;;;-3275.20;99.90;;;;;;5032340;28;20425;-72
2023/02/06 01:09:05;;;;;;;65.93;19.83;;;-3275.10;99.90;;;;;;5031985;28;20030;-72
2023/02/06 01:11:31;;;;;;;56.78;18.67;;;-3275.10;99.90;;;;;;5028427;28;20121;-72
2023/02/06 01:13:56;;;;;;;58.85;18.73;;;-3275.10;99.90;;;;;;5030186;28;20051;-71
2023/02/06 01:16:23;;;;;;;61.67;18.48;;;-3275.10;99.90;;;;;;5031337;28;20030;-71
2023/02/06 01:18:49;;;;;;;53.70;17.15;;;-3275.00;99.90;;;;;;5023751;28;20421;-71
2023/02/06 01:21:19;;;;;;;58.15;18.20;;;-3275.00;99.90;;;;;;5023380;28;20034;-71
2023/02/06 01:23:46;;;;;;;57.28;17.55;;;-3275.00;99.90;;;;;;5012791;28;20054;-71
2023/02/06 01:26:14;;;;;;;59.50;18.17;;;-3275.00;99.90;;;;;;5022049;28;20459;-72
2023/02/06 01:28:42;;;;;;;60.88;18.15;;;-3275.00;99.90;;;;;;5020356;28;20045;-71
2023/02/06 01:31:13;;;;;;;60.38;19.05;;;-3275.00;99.90;;;;;;5023307;28;20072;-72
2023/02/06 01:33:40;;;;;;;63.83;17.92;;;-3274.90;99.90;;;;;;5021091;28;20044;-71
2023/02/06 01:36:05;;;;;;;53.45;17.92;;;-3274.90;99.90;;;;;;5022528;28;20029;-71
2023/02/06 01:38:31;;;;;;;53.50;18.25;;;-3274.90;99.90;;;;;;5028259;28;20493;-72
2023/02/06 01:40:58;;;;;;;62.15;17.73;;;-3274.80;99.90;;;;;;5019599;28;20048;-72
2023/02/06 01:43:27;;;;;;;50.75;17.13;;;-3274.80;99.90;;;;;;5025160;28;20537;-72
2023/02/06 01:45:53;;;;;;;54.42;17.00;;;-3274.80;99.90;;;;;;5022750;28;20061;-71
2023/02/06 01:48:24;;;;;;;49.85;16.52;;;-3274.70;99.90;;;;;;5026812;28;20072;-71
2023/02/06 01:50:54;;;;;;;53.83;16.58;;;-3274.70;99.90;;;;;;5023182;28;20033;-71
2023/02/06 01:53:21;;;;;;;52.60;17.70;;;-3274.70;99.90;;;;;;5018408;28;20164;-71
2023/02/06 01:55:49;;;;;;;51.05;17.05;;;-3274.70;99.90;;;;;;5021016;28;20045;-71
2023/02/06 01:58:23;;;;;;;55.40;16.27;;;-3274.60;99.90;;;;;;5016285;28;20053;-71
2023/02/06 02:00:48;;;;;;;52.90;17.17;;;-3274.60;99.90;;;;;;5031102;28;20095;-71
2023/02/06 02:03:14;;;;;;;54.42;15.57;;;-3274.70;99.90;;;;;;5019504;28;20037;-71
2023/02/06 02:05:42;;;;;;;53.88;15.35;;;-3274.60;99.90;;;;;;5031908;28;20053;-71
2023/02/06 02:08:38;;;;;;;52.67;16.30;;;-3274.60;99.90;;;;;;5018861;28;20034;-71
2023/02/06 02:11:06;;;;;;;48.97;14.65;;;-3274.60;99.90;;;;;;5017419;28;20037;-71
2023/02/06 02:13:33;;;;;;;52.22;15.82;;;-3274.60;99.90;;;;;;5024257;28;20033;-71
2023/02/06 02:16:22;;;;;;;56.78;15.55;;;-3274.50;99.90;;;;;;5023847;28;20025;-71
2023/02/06 02:19:12;;;;;;;52.45;15.35;;;-3274.50;99.90;;;;;;5021624;28;20029;-71
2023/02/06 02:22:06;;;;;;;55.80;15.35;;;-3274.50;99.90;;;;;;5011673;28;20033;-70
2023/02/06 02:24:54;;;;;;;61.85;15.55;;;-3274.50;99.90;;;;;;5022625;28;20096;-72
2023/02/06 02:27:33;;;;;;;46.13;13.77;;;-3274.40;99.90;;;;;;5019629;28;20022;-72
2023/02/06 02:30:32;;;;;;;49.17;14.40;;;-3274.30;99.90;;;;;;5022871;28;20514;-72
2023/02/06 02:33:22;;;;;;;45.58;14.63;;;-3274.40;99.90;;;;;;5026766;28;20103;-71
2023/02/06 02:36:13;;;;;;;44.22;12.75;;;-3274.40;99.90;;;;;;5021366;28;20418;-72
2023/02/06 02:38:52;;;;;;;53.42;13.38;;;-3274.40;99.90;;;;;;5023466;28;20033;-71
2023/02/06 02:41:45;;;;;;;48.90;13.63;;;-3274.40;99.90;;;;;;5019772;28;20037;-71
2023/02/06 02:44:38;;;;;;;43.42;12.70;;;-3274.40;99.90;;;;;;5013642;28;20425;-71
2023/02/06 02:47:08;;;;;;;31.58;11.82;;;-3274.40;99.90;;;;;;5020432;28;20826;-71
2023/02/06 02:49:36;;;;;;;45.42;12.73;;;-3274.40;99.90;;;;;;5027611;28;20029;-71
2023/02/06 02:52:03;;;;;;;43.30;12.50;;;-3274.30;99.90;;;;;;5023189;28;20389;-71
2023/02/06 02:54:28;;;;;;;47.55;12.80;;;-3274.30;99.90;;;;;;5023862;28;20033;-71
2023/02/06 02:57:00;;;;;;;51.30;12.23;;;-3274.30;99.90;;;;;;5009765;28;20463;-70
2023/02/06 02:59:32;;;;;;;38.85;12.23;;;-3274.30;99.90;;;;;;5011393;28;20034;-71
2023/02/06 03:02:03;;;;;;;51.58;13.00;;;-3274.20;99.90;;;;;;5023786;28;20025;-71
2023/02/06 03:04:36;;;;;;;35.03;11.77;;;-3274.20;99.90;;;;;;5028423;28;20033;-71
2023/02/06 03:07:23;;;;;;;41.05;11.55;;;-3274.20;99.90;;;;;;5032158;28;20041;-71
2023/02/06 03:09:48;;;;;;;42.85;11.25;;;-3274.20;99.90;;;;;;5026887;28;20044;-71
2023/02/06 03:12:26;;;;;;;45.83;12.02;;;-3274.20;99.90;;;;;;5023516;28;20492;-70
2023/02/06 03:15:06;;;;;;;37.60;11.10;;;-3274.10;99.90;;;;;;5030695;28;20025;-70
2023/02/06 03:17:40;;;;;;;38.08;10.55;;;-3274.10;99.90;;;;;;5025371;28;20029;-71
2023/02/06 03:20:09;;;;;;;41.53;10.05;;;-3274.10;99.90;;;;;;5016093;28;20037;-71
2023/02/06 03:22:36;;;;;;;44.72;10.65;;;-3274.20;99.90;;;;;;5014113;28;20089;-71
2023/02/06 03:25:10;;;;;;;41.20;10.25;;;-3274.30;99.90;;;;;;5026272;28;20032;-71
2023/02/06 03:27:39;;;;;;;31.55;9.27;;;-3274.30;99.90;;;;;;5030289;28;20029;-71
2023/02/06 03:30:07;;;;;;;44.00;10.82;;;-3274.40;99.90;;;;;;5029337;28;20041;-71
2023/02/06 03:32:38;;;;;;;36.88;11.55;;;-3274.40;99.90;;;;;;5023428;28;20111;-72
2023/02/06 03:35:11;;;;;;;40.88;10.98;;;-3274.30;99.90;;;;;;5026600;28;20033;-71
2023/02/06 03:37:37;;;;;;;41.83;10.50;;;-3274.30;99.90;;;;;;5025343;28;20047;-71
2023/02/06 03:40:04;;;;;;;48.05;11.85;;;-3274.40;99.90;;;;;;5026581;28;20068;-71
2023/02/06 03:42:33;;;;;;;45.28;11.50;;;-3274.30;99.90;;;;;;5028788;28;20033;-71
2023/02/06 03:45:14;;;;;;;40.15;11.07;;;-3274.20;99.90;;;;;;5029894;28;20454;-72
2023/02/06 03:47:41;;;;;;;48.40;10.70;;;-3274.20;99.90;;;;;;5027428;28;20022;-71
2023/02/06 03:50:09;;;;;;;36.38;10.50;;;-3274.10;99.90;;;;;;5029685;28;20112;-71
2023/02/06 03:52:38;;;;;;;39.83;10.63;;;-3274.20;99.90;;;;;;5026559;28;20117;-71
2023/02/06 03:55:10;;;;;;;41.47;11.80;;;-3274.30;99.90;;;;;;5027781;28;20061;-71
2023/02/06 03:57:37;;;;;;;47.70;11.40;;;-3274.20;99.90;;;;;;5028461;28;20049;-71
2023/02/06 04:00:04;;;;;;;30.95;10.40;;;-3274.20;99.90;;;;;;5021351;28;20030;-72
2023/02/06 04:02:30;;;;;;;47.38;10.30;;;-3274.20;99.90;;;;;;5026252;28;20057;-72
2023/02/06 04:04:56;;;;;;;36.85;10.25;;;-3274.20;99.90;;;;;;5030785;28;20037;-71
2023/02/06 04:07:29;;;;;;;37.88;9.18;;;-3274.30;99.90;;;;;;5026709;28;20738;-71
2023/02/06 04:09:55;;;;;;;26.10;8.25;;;-3274.40;99.90;;;;;;5024168;28;20041;-70
2023/02/06 04:12:22;;;;;;;38.67;10.75;;;-3274.40;99.90;;;;;;5031151;28;20520;-72
2023/02/06 04:14:47;;;;;;;32.95;9.90;;;-3274.50;99.90;;;;;;5026296;28;20120;-71
2023/02/06 04:17:13;;;;;;;29.80;8.93;;;-3274.60;99.90;;;;;;5024130;28;20108;-72
2023/02/06 04:19:40;;;;;;;40.60;8.45;;;-3274.60;99.90;;;;;;5028370;28;20034;-71
2023/02/06 04:22:07;;;;;;;36.63;8.00;;;-3274.70;99.90;;;;;;5029379;28;20040;-72
2023/02/06 04:24:32;;;;;;;30.17;8.65;;;-3274.80;99.90;;;;;;5017551;28;20061;-71
2023/02/06 04:26:58;;;;;;;43.58;8.15;;;-3274.90;99.90;;;;;;5026626;28;20037;-71
2023/02/06 04:29:23;;;;;;;28.58;7.95;;;-3274.80;99.90;;;;;;5028671;28;20035;-71
2023/02/06 04:31:49;;;;;;;38.85;8.30;;;-3274.90;99.90;;;;;;5029763;28;20472;-71
2023/02/06 04:34:15;;;;;;;25.88;8.40;;;-3274.90;99.90;;;;;;5028834;28;20029;-71
2023/02/06 04:36:40;;;;;;;39.67;8.27;;;-3274.90;99.90;;;;;;5026188;28;20026;-72
2023/02/06 04:39:07;;;;;;;30.23;7.72;;;-3274.90;99.90;;;;;;5022883;28;20033;-71
2023/02/06 04:41:33;;;;;;;34.80;7.75;;;-3275.00;99.90;;;;;;5022699;28;20044;-71
2023/02/06 04:43:58;;;;;;;28.80;7.78;;;-3275.00;99.90;;;;;;5024707;28;20041;-71
2023/02/06 04:46:24;;;;;;;32.13;7.65;;;-3274.90;99.90;;;;;;5028515;28;20417;-71
2023/02/06 04:48:49;;;;;;;39.70;7.68;;;-3274.80;99.90;;;;;;5022631;28;20043;-71
2023/02/06 04:51:15;;;;;;;27.42;7.60;;;-3274.80;99.90;;;;;;5020416;28;20026;-70
2023/02/06 04:53:40;;;;;;;29.25;7.68;;;-3274.80;99.90;;;;;;5015447;28;20045;-71
2023/02/06 04:56:09;;;;;;;35.80;7.82;;;-3274.80;99.90;;;;;;5019096;28;20037;-71
2023/02/06 04:58:35;;;;;;;37.75;7.63;;;-3274.70;99.90;;;;;;5016331;28;20029;-71
2023/02/06 05:01:01;;;;;;;34.38;7.30;;;-3274.70;99.90;;;;;;5017558;28;20431;-71
2023/02/06 05:03:28;;;;;;;20.13;6.32;;;-3274.60;99.90;;;;;;5017764;28;20037;-71
2023/02/06 05:05:54;;;;;;;23.58;7.78;;;-3274.60;99.90;;;;;;5021630;28;20386;-71
2023/02/06 05:08:20;;;;;;;27.23;7.00;;;-3274.50;99.90;;;;;;5023831;28;20466;-71
2023/02/06 05:10:46;;;;;;;26.50;7.03;;;-3274.50;99.90;;;;;;5016215;28;20034;-71
2023/02/06 05:13:11;;;;;;;27.92;7.05;;;-3274.40;99.90;;;;;;5025619;28;20148;-71
2023/02/06 05:15:37;;;;;;;37.95;8.10;;;-3274.40;99.90;;;;;;5019266;28;20486;-71
2023/02/06 05:18:03;;;;;;;31.63;7.28;;;-3274.40;99.90;;;;;;5018712;28;20152;-72
2023/02/06 05:20:29;;;;;;;34.75;7.40;;;-3274.40;99.90;;;;;;5024660;28;20432;-71
2023/02/06 05:22:55;;;;;;;34.58;7.57;;;-3274.40;99.90;;;;;;5028652;28;20066;-71
2023/02/06 05:25:20;;;;;;;40.63;7.22;;;-3274.30;99.90;;;;;;5016958;28;20390;-70
2023/02/06 05:27:46;;;;;;;36.53;7.63;;;-3274.40;99.90;;;;;;5023242;28;20068;-72
2023/02/06 05:30:12;;;;;;;27.52;7.15;;;-3274.50;99.90;;;;;;5020362;28;20033;-69
2023/02/06 05:32:38;;;;;;;37.65;8.02;;;-3274.50;99.90;;;;;;5025319;28;20076;-71
2023/02/06 05:35:04;;;;;;;42.20;8.48;;;-3274.60;99.90;;;;;;5024427;28;20071;-71
2023/02/06 05:37:30;;;;;;;33.20;7.65;;;-3274.70;99.90;;;;;;5022667;28;20026;-71
2023/02/06 05:39:55;;;;;;;41.80;7.50;;;-3274.70;99.90;;;;;;5027452;28;20899;-71
2023/02/06 05:42:21;;;;;;;36.92;7.60;;;-3274.60;99.90;;;;;;5023594;28;20068;-71
2023/02/06 05:44:46;;;;;;;36.00;8.13;;;-3274.60;99.90;;;;;;5022355;28;20088;-71
2023/02/06 05:47:12;;;;;;;34.53;8.10;;;-3274.60;99.90;;;;;;5027690;28;20033;-71
2023/02/06 05:49:37;;;;;;;45.50;8.30;;;-3274.60;99.90;;;;;;5025967;28;20113;-71
2023/02/06 05:52:03;;;;;;;30.05;6.80;;;-3274.60;99.90;;;;;;5017183;28;20381;-71
2023/02/06 05:54:28;;;;;;;39.33;8.32;;;-3274.60;99.90;;;;;;5022504;28;20389;-72
2023/02/06 05:56:56;;;;;;;39.45;7.85;;;-3274.60;99.90;;;;;;5027096;28;20544;-71
2023/02/06 05:59:21;;;;;;;35.55;7.40;;;-3274.60;99.90;;;;;;5025513;28;20079;-71
2023/02/06 06:01:46;;;;;;;34.85;7.97;;;-3274.70;99.90;;;;;;5027506;28;20042;-71
2023/02/06 06:04:12;;;;;;;38.15;8.10;;;-3274.80;99.90;;;;;;5023956;28;20493;-71
2023/02/06 06:06:38;;;;;;;46.30;8.20;;;-3274.90;99.90;;;;;;5019184;28;20116;-71
2023/02/06 06:09:03;;;;;;;42.92;9.25;;;-3274.90;99.90;;;;;;5021067;28;20037;-71
2023/02/06 06:11:29;;;;;;;37.67;8.10;;;-3274.80;99.90;;;;;;5027226;28;20063;-72
2023/02/06 06:13:55;;;;;;;47.97;9.27;;;-3274.80;99.90;;;;;;5021668;28;20057;-72
2023/02/06 06:16:20;;;;;;;45.95;9.07;;;-3274.90;99.90;;;;;;5024355;28;20033;-72
2023/02/06 06:18:46;;;;;;;40.20;9.52;;;-3274.90;99.90;;;;;;5018714;28;20037;-73
2023/02/06 06:21:11;;;;;;;41.38;9.60;;;-3274.90;99.90;;;;;;5022367;28;20040;-73
2023/02/06 06:23:37;;;;;;;32.80;9.05;;;-3274.90;99.90;;;;;;5017567;28;20045;-72
2023/02/06 06:26:03;;;;;;;34.95;8.35;;;-3274.90;99.90;;;;;;5017305;28;20034;-72
2023/02/06 06:28:28;;;;;;;41.22;8.75;;;-3274.80;99.90;;;;;;5023835;28;20383;-72
2023/02/06 06:31:06;;;;;;;48.42;9.63;;;-3274.80;99.90;;;;;;5026876;28;20038;-72
2023/02/06 06:33:31;;;;;;;50.38;8.95;;;-3274.80;99.90;;;;;;5020234;28;20026;-72
2023/02/06 06:35:57;;;;;;;40.78;9.38;;;-3274.70;99.90;;;;;;5028917;28;20120;-72
2023/02/06 06:38:22;;;;;;;41.78;9.38;;;-3274.70;99.90;;;;;;5019329;28;20370;-71
2023/02/06 06:40:48;;;;;;;31.30;8.95;;;-3274.60;99.90;;;;;;5016951;28;20042;-72
2023/02/06 06:43:13;;;;;;;39.38;8.52;;;-3274.50;99.90;;;;;;5025837;28;20100;-72
2023/02/06 06:45:39;;;;;;;41.20;9.90;;;-3274.50;99.90;;;;;;5018745;28;20414;-71
2023/02/06 06:48:04;;;;;;;35.47;9.65;;;-3274.50;99.90;;;;;;5016799;28;20037;-72
2023/02/06 06:50:30;;;;;;;45.95;10.20;;;-3274.60;99.90;;;;;;5023501;28;20114;-72
2023/02/06 06:52:55;;;;;;;29.20;8.90;;;-3274.60;99.90;;;;;;5025851;28;20041;-72
2023/02/06 06:55:22;;;;;;;38.08;9.48;;;-3274.60;99.90;;;;;;5030747;28;20033;-72
2023/02/06 06:57:47;;;;;;;34.00;9.48;;;-3274.50;99.90;;;;;;5027993;28;20033;-72
2023/02/06 07:00:14;;;;;;;42.78;9.52;;;-3274.50;99.90;;;;;;5028264;28;20394;-71
2023/02/06 07:02:39;;;;;;;33.95;9.40;;;-3274.60;99.90;;;;;;5030542;28;20037;-71
2023/02/06 07:05:05;;;;;;;48.40;9.55;;;-3274.60;99.90;;;;;;5019040;28;20040;-72
2023/02/06 07:07:31;;;;;;;39.92;10.27;;;-3274.50;99.90;;;;;;5017091;28;20116;-72
2023/02/06 07:09:58;;;;;;;55.60;10.52;;;-3274.50;99.90;;;;;;5020873;28;20068;-72
2023/02/06 07:12:24;;;;;;;36.80;9.38;;;-3274.50;99.90;;;;;;5020792;28;20029;-72
2023/02/06 07:14:49;;;;;;;35.00;9.52;;;-3274.50;99.90;;;;;;5024355;28;20099;-72
2023/02/06 07:17:15;;;;;;;41.00;9.88;;;-3274.50;99.90;;;;;;5021838;28;20029;-72
2023/02/06 07:19:41;;;;;;;40.88;9.73;;;-3274.50;99.90;;;;;;5022017;28;20124;-72
2023/02/06 07:22:06;;;;;;;36.95;10.60;;;-3274.70;99.90;;;;;;5017894;28;20121;-72
2023/02/06 07:24:31;;;;;;;32.72;10.65;;;-3274.80;99.90;;;;;;5023222;28;20188;-72
2023/02/06 07:26:57;;;;;;;44.40;11.88;;;-3274.90;99.90;;;;;;5019644;28;20025;-72
2023/02/06 07:29:23;;;;;;;50.83;12.25;;;-3275.00;99.90;;;;;;5020737;28;20538;-72
2023/02/06 07:31:48;;;;;;;55.03;12.30;;;-3275.10;99.90;;;;;;5016510;28;20533;-72
2023/02/06 07:34:15;;;;;;;55.47;13.50;;;-3275.30;99.90;;;;;;5024871;28;20017;-72
2023/02/06 07:36:41;;;;;;;52.42;12.63;;;-3275.30;99.90;;;;;;5019482;28;20032;-72
2023/02/06 07:39:07;;;;;;;43.10;13.35;;;-3275.50;99.90;;;;;;5023936;28;20036;-72
2023/02/06 07:41:33;;;;;;;45.42;12.93;;;-3275.60;99.90;;;;;;5022033;28;20045;-72
2023/02/06 07:43:58;;;;;;;49.75;13.50;;;-3275.70;99.90;;;;;;5022487;28;20030;-72
2023/02/06 07:46:24;;;;;;;62.60;14.73;;;-3275.70;99.90;;;;;;5021414;28;20032;-72
2023/02/06 07:48:49;;;;;;;50.00;15.02;;;-3275.90;99.90;;;;;;5021735;28;20065;-72
2023/02/06 07:51:15;;;;;;;56.90;15.27;;;-3276.00;99.90;;;;;;5022350;28;20035;-72
2023/02/06 07:53:41;;;;;;;57.08;16.05;;;-3276.10;99.90;;;;;;5023365;28;20432;-72
2023/02/06 07:56:12;;;;;;;61.67;15.20;;;-3276.20;99.90;;;;;;5018041;28;20072;-72
2023/02/06 07:58:38;;;;;;;62.08;16.63;;;-3276.30;99.90;;;;;;5026219;28;20037;-72
2023/02/06 08:01:05;;;;;;;57.50;15.90;;;-3276.40;99.90;;;;;;5030025;28;20048;-72
2023/02/06 08:03:31;;;;;;;57.90;15.63;;;-3276.50;99.90;;;;;;5029011;28;20061;-72
2023/02/06 08:05:57;;;;;;;64.78;16.90;;;-3276.50;99.90;;;;;;5025801;28;20097;-73
2023/02/06 08:08:22;;;;;;;61.03;15.45;;;-3276.70;99.90;;;;;;5022103;28;20439;-72
2023/02/06 08:10:48;;;;;;;51.88;16.05;;;0.00;99.90;;;;;;5027138;28;20042;-72
2023/02/06 08:13:14;;;;;;;66.65;15.98;;;0.00;99.90;;;;;;5023922;28;20111;-72
2023/02/06 08:15:39;;;;;;;53.63;17.27;;;0.00;99.90;;;;;;5025819;28;20033;-72
2023/02/06 08:18:05;;;;;;;61.03;17.92;;;0.10;99.90;;;;;;5027871;28;20045;-72
2023/02/06 08:20:30;;;;;;;61.10;17.02;;;0.10;99.90;;;;;;5029087;28;20046;-72
2023/02/06 08:22:56;;;;;;;65.20;15.30;;;0.20;99.90;;;;;;5022087;28;20060;-73
2023/02/06 08:25:22;;;;;;;54.45;15.75;;;0.20;99.90;;;;;;5023798;28;20037;-73
2023/02/06 08:27:54;;;;;;;63.58;15.30;;;0.30;99.90;;;;;;5026165;28;20055;-73
2023/02/06 08:30:20;;;;;;;61.30;16.08;;;0.30;99.90;;;;;;5024311;28;20109;-73
2023/02/06 08:32:46;;;;;;;68.32;16.23;;;0.30;99.90;;;;;;5024571;28;20029;-73
2023/02/06 08:35:12;;;;;;;64.32;16.85;;;0.40;99.90;;;;;;5025083;28;20080;-73
2023/02/06 08:37:37;;;;;;;90.60;16.58;;;0.50;99.90;;;;;;5025409;28;20520;-73
2023/02/06 08:40:03;;;;;;;74.15;16.20;;;0.50;99.90;;;;;;5022893;28;20036;-73
2023/02/06 08:42:28;;;;;;;102.82;18.98;;;0.60;99.90;;;;;;5024637;28;20366;-73
2023/02/06 08:44:54;;;;;;;81.82;18.17;;;0.60;99.90;;;;;;5029294;28;20451;-73
2023/02/06 08:47:20;;;;;;;101.90;20.45;;;0.70;99.90;;;;;;5024715;28;20061;-73
2023/02/06 08:49:50;;;;;;;102.05;18.88;;;0.80;99.90;;;;;;5025127;28;20138;-73
2023/02/06 08:52:16;;;;;;;100.78;19.88;;;0.90;99.90;;;;;;5026471;28;20033;-73
2023/02/06 08:54:42;;;;;;;83.53;19.98;;;0.90;99.90;;;;;;5026670;28;20063;-73
2023/02/06 08:57:08;;;;;;;117.28;19.58;;;1.00;99.90;;;;;;5025077;28;20036;-73
2023/02/06 08:59:34;;;;;;;105.10;18.80;;;1.10;99.90;;;;;;5024431;28;20048;-73
2023/02/06 09:01:59;;;;;;;94.15;18.52;;;1.10;99.90;;;;;;5021422;28;20034;-73
2023/02/06 09:04:30;;;;;;;86.13;18.02;;;1.10;99.90;;;;;;5020117;28;20511;-73
2023/02/06 09:06:56;;;;;;;91.90;17.90;;;1.10;99.90;;;;;;5023011;28;20045;-73
2023/02/06 09:09:21;;;;;;;98.60;17.38;;;1.30;99.90;;;;;;5020287;28;20489;-73
2023/02/06 09:11:47;;;;;;;89.00;17.63;;;1.30;99.90;;;;;;5027857;28;20087;-73
2023/02/06 09:14:15;;;;;;;94.75;17.85;;;1.30;99.80;;;;;;5022180;28;20041;-73
2023/02/06 09:16:41;;;;;;;81.68;16.92;;;1.40;99.80;;;;;;5025317;28;20522;-73
2023/02/06 09:19:07;;;;;;;76.45;16.15;;;1.40;99.80;;;;;;5025331;28;20068;-73
2023/02/06 09:21:34;;;;;;;90.95;15.98;;;1.50;99.90;;;;;;5023580;28;20041;-73
2023/02/06 09:24:02;;;;;;;70.55;15.55;;;1.50;99.80;;;;;;5023857;28;20053;-73
2023/02/06 09:26:32;;;;;;;67.63;15.82;;;1.50;99.80;;;;;;5022116;28;20045;-73
2023/02/06 09:29:01;;;;;;;74.47;14.63;;;1.50;99.80;;;;;;5021347;28;20405;-73
2023/02/06 09:31:29;;;;;;;64.63;14.63;;;1.60;99.90;;;;;;5024754;28;20475;-73
2023/02/06 09:33:55;;;;;;;75.28;15.80;;;1.70;99.90;;;;;;5028018;28;20052;-74
2023/02/06 09:36:21;;;;;;;78.00;16.58;;;1.70;99.80;;;;;;5024377;28;20030;-73
2023/02/06 09:38:49;;;;;;;70.55;14.02;;;1.70;99.70;;;;;;5023111;28;20041;-73
2023/02/06 09:41:42;;;;;;;66.72;16.17;;;1.70;99.70;;;;;;5024796;28;20124;-73
2023/02/06 09:44:31;;;;;;;66.20;15.07;;;1.80;99.70;;;;;;5016521;28;20026;-71
2023/02/06 09:47:24;;;;;;;57.03;14.20;;;1.90;99.70;;;;;;5021292;28;20128;-70
2023/02/06 09:50:12;;;;;;;60.65;12.98;;;1.90;99.70;;;;;;5017205;28;20148;-71
2023/02/06 09:53:03;;;;;;;59.20;12.27;;;2.00;99.60;;;;;;5030782;28;20149;-70
2023/02/06 09:55:37;;;;;;;57.50;12.43;;;2.10;99.60;;;;;;5025303;28;20081;-70
2023/02/06 09:58:38;;;;;;;47.33;13.05;;;2.10;99.60;;;;;;5022552;28;20552;-71
2023/02/06 10:01:03;;;;;;;50.53;12.88;;;2.30;99.80;;;;;;5016334;28;20053;-73
2023/02/06 10:03:44;;;;;;;57.78;13.90;;;2.40;99.70;;;;;;5016605;28;20021;-72
2023/02/06 10:06:38;;;;;;;29.88;11.43;;;2.50;99.60;;;;;;5020721;28;20042;-72
2023/02/06 10:09:11;;;;;;;36.65;13.00;;;2.60;99.60;;;;;;5019187;28;20066;-70
2023/02/06 10:11:53;;;;;;;46.70;12.32;;;2.70;99.50;;;;;;5018370;28;20050;-72
2023/02/06 10:14:39;;;;;;;39.42;11.85;;;2.70;99.30;;;;;;5017793;28;20030;-77
2023/02/06 10:17:30;;;;;;;43.05;12.43;;;2.80;99.30;;;;;;5018758;28;20025;-74
2023/02/06 10:20:09;;;;;;;39.42;12.07;;;2.80;99.40;;;;;;5015217;28;20034;-73
2023/02/06 10:23:02;;;;;;;30.75;10.43;;;2.90;99.30;;;;;;5016459;28;20058;-74
2023/02/06 10:25:38;;;;;;;31.05;10.90;;;3.00;99.20;;;;;;5020400;28;20828;-74
2023/02/06 10:28:20;;;;;;;30.17;11.35;;;3.00;99.10;;;;;;5017778;28;20394;-73
2023/02/06 10:30:57;;;;;;;21.08;10.70;;;2.70;98.50;;;;;;5019408;28;20553;-73
2023/02/06 10:34:01;;;;;;;28.33;11.38;;;2.80;98.80;;;;;;5025499;28;20550;-73
2023/02/06 10:36:58;;;;;;;30.63;10.70;;;2.70;98.60;;;;;;5016708;28;20033;-74
2023/02/06 10:39:44;;;;;;;30.58;10.70;;;2.70;98.50;;;;;;5015707;28;20475;-74
2023/02/06 10:42:53;;;;;;;25.48;10.95;;;2.90;98.50;;;;;;5017977;28;20030;-74
2023/02/06 10:45:42;;;;;;;28.58;11.77;;;2.70;98.20;;;;;;5020815;28;20048;-74
2023/02/06 10:48:32;;;;;;;28.40;11.93;;;2.80;98.20;;;;;;5020106;28;20073;-74
2023/02/06 10:51:25;;;;;;;33.53;12.00;;;2.90;98.30;;;;;;5022311;28;20091;-74
2023/02/06 10:53:56;;;;;;;31.45;13.32;;;3.00;98.00;;;;;;5010448;28;20116;-74
2023/02/06 10:56:26;;;;;;;28.00;13.82;;;2.90;97.90;;;;;;5015191;28;21139;-74
2023/02/06 10:58:56;;;;;;;29.67;14.07;;;2.90;97.80;;;;;;5020164;28;20038;-72
2023/02/06 11:01:23;;;;;;;30.70;14.15;;;3.00;98.00;;;;;;5019562;28;20517;-71
2023/02/06 11:03:57;;;;;;;36.45;14.30;;;2.90;97.70;;;;;;5015587;28;20026;-71
2023/02/06 11:06:24;;;;;;;29.10;13.18;;;2.70;97.50;;;;;;5018396;28;20026;-70
2023/02/06 11:08:50;;;;;;;34.15;13.88;;;2.90;97.80;;;;;;5023021;28;20439;-72
2023/02/06 11:11:30;;;;;;;31.83;12.98;;;2.80;97.50;;;;;;5017794;28;20030;-71
2023/02/06 11:14:04;;;;;;;29.83;12.98;;;2.90;97.70;;;;;;5022389;28;20056;-73
2023/02/06 11:16:31;;;;;;;32.80;12.48;;;3.00;97.80;;;;;;5021752;28;20409;-71
2023/02/06 11:19:07;;;;;;;29.98;12.75;;;3.00;97.60;;;;;;5023649;28;20029;-72
2023/02/06 11:21:49;;;;;;;39.33;13.45;;;3.10;97.70;;;;;;5019357;28;20037;-73
2023/02/06 11:24:17;;;;;;;27.90;12.02;;;3.00;97.40;;;;;;5021724;28;20147;-72
2023/02/06 11:26:56;;;;;;;24.08;12.00;;;2.90;97.60;;;;;;5021462;28;20033;-70
2023/02/06 11:29:27;;;;;;;25.77;13.15;;;3.00;97.40;;;;;;5022631;28;20018;-70
2023/02/06 11:31:57;;;;;;;22.95;11.45;;;3.10;97.60;;;;;;5027379;28;20064;-70
2023/02/06 11:34:25;;;;;;;23.33;12.53;;;3.40;97.80;;;;;;5022033;28;20445;-78
2023/02/06 11:36:54;;;;;;;25.42;12.45;;;3.30;97.20;;;;;;5031471;28;20037;-71
2023/02/06 11:39:29;;;;;;;26.05;11.77;;;3.40;97.40;;;;;;5023979;28;20049;-72
2023/02/06 11:42:12;;;;;;;31.13;12.45;;;3.60;97.40;;;;;;5019988;28;20099;-73
2023/02/06 11:44:41;;;;;;;25.80;10.95;;;3.60;96.70;;;;;;5026943;28;20046;-73
2023/02/06 11:47:35;;;;;;;28.58;10.80;;;3.50;96.80;;;;;;5026894;28;20037;-72
2023/02/06 11:50:12;;;;;;;26.02;11.95;;;3.60;96.60;;;;;;5027125;28;20040;-72
2023/02/06 11:52:44;;;;;;;21.95;10.98;;;3.70;96.30;;;;;;5025519;28;20732;-73
2023/02/06 11:55:21;;;;;;;21.23;11.35;;;3.80;96.10;;;;;;5024108;28;20128;-73
2023/02/06 11:58:06;;;;;;;21.50;10.65;;;3.80;96.10;;;;;;5028407;28;20053;-71
2023/02/06 12:00:34;;;;;;;25.45;12.43;;;3.80;95.40;;;;;;5023542;28;20026;-72
2023/02/06 12:03:01;;;;;;;26.45;13.05;;;3.90;95.40;;;;;;5024665;28;20099;-73
2023/02/06 12:05:32;;;;;;;27.33;13.00;;;4.00;95.40;;;;;;5026393;28;20041;-71
2023/02/06 12:08:05;;;;;;;29.67;11.77;;;4.20;95.30;;;;;;5023806;28;20108;-72
2023/02/06 12:10:35;;;;;;;26.75;12.27;;;4.20;94.90;;;;;;5023637;28;20168;-73
2023/02/06 12:13:13;;;;;;;30.88;11.65;;;4.50;95.00;;;;;;5023170;28;20021;-71
2023/02/06 12:15:52;;;;;;;29.50;12.43;;;4.40;94.20;;;;;;5021946;28;20382;-70
2023/02/06 12:18:23;;;;;;;25.13;10.70;;;4.50;93.90;;;;;;5020369;28;20037;-73
2023/02/06 12:20:53;;;;;;;23.75;10.55;;;4.50;94.00;;;;;;5017965;28;20231;-73
2023/02/06 12:23:36;;;;;;;21.02;11.02;;;4.50;93.90;;;;;;5019812;28;20054;-73
2023/02/06 12:26:07;;;;;;;25.90;10.88;;;4.60;93.30;;;;;;5020465;28;20700;-72
2023/02/06 12:28:59;;;;;;;19.02;9.32;;;4.70;93.30;;;;;;5021728;28;20501;-73